Time;durP1;ratioP1;P1;durP2;ratioP2;P2;SDS_P1;SDS_P2;PMS_P1;PMS_P2;Temp;Humidity;BMP_temperature;BMP_pressure;BME280_temperature;BME280_humidity;BME280_pressure;Samples;Min_cycle;Max_cycle;Signal;HPM_P1;HPM_P2
2023/01/08 00:01:17;;;;;;;11.97;9.17;;;2.80;99.90;;;;;;5072968;28;20207;-50
2023/01/08 00:03:44;;;;;;;10.30;9.20;;;2.70;99.90;;;;;;5071496;28;20234;-50
2023/01/08 00:06:13;;;;;;;9.80;8.77;;;2.60;99.90;;;;;;5071671;28;20207;-51
2023/01/08 00:08:42;;;;;;;12.23;10.07;;;2.50;99.90;;;;;;5070659;28;20638;-50
2023/01/08 00:11:09;;;;;;;12.93;10.77;;;2.40;99.90;;;;;;5072490;28;20582;-50
2023/01/08 00:13:37;;;;;;;13.23;10.10;;;2.30;99.90;;;;;;5071224;28;20742;-50
2023/01/08 00:16:05;;;;;;;12.73;9.80;;;2.30;99.90;;;;;;5070949;28;20198;-50
2023/01/08 00:18:33;;;;;;;11.60;9.95;;;2.40;99.90;;;;;;5067595;28;20511;-51
2023/01/08 00:21:00;;;;;;;10.17;8.27;;;2.40;99.90;;;;;;5072385;28;20190;-51
2023/01/08 00:23:29;;;;;;;9.37;8.40;;;2.40;99.90;;;;;;5070238;28;20209;-50
2023/01/08 00:26:00;;;;;;;10.20;9.17;;;2.40;99.90;;;;;;5070761;28;20199;-51
2023/01/08 00:28:27;;;;;;;9.60;8.63;;;2.40;99.90;;;;;;5072367;28;20271;-51
2023/01/08 00:30:54;;;;;;;11.70;8.97;;;2.40;99.90;;;;;;5070589;28;20207;-51
2023/01/08 00:33:21;;;;;;;11.23;9.13;;;2.30;99.90;;;;;;5067988;28;20202;-51
2023/01/08 00:35:48;;;;;;;12.53;9.23;;;2.40;99.90;;;;;;5067164;28;20286;-50
2023/01/08 00:38:15;;;;;;;11.73;9.30;;;2.50;99.90;;;;;;5064800;28;20219;-52
2023/01/08 00:40:42;;;;;;;10.93;9.30;;;2.50;99.90;;;;;;5073595;28;20199;-50
2023/01/08 00:43:11;;;;;;;12.70;8.13;;;2.30;99.90;;;;;;5076372;28;20203;-51
2023/01/08 00:45:38;;;;;;;11.73;9.17;;;2.20;99.90;;;;;;5073717;28;20226;-51
2023/01/08 00:48:05;;;;;;;12.83;9.17;;;2.10;99.90;;;;;;5070778;28;20198;-51
2023/01/08 00:50:32;;;;;;;12.60;8.20;;;2.00;99.90;;;;;;5071728;28;20219;-50
2023/01/08 00:52:59;;;;;;;11.47;8.23;;;2.10;99.90;;;;;;5065984;28;20220;-50
2023/01/08 00:55:26;;;;;;;13.00;8.77;;;2.10;99.90;;;;;;5069072;28;20235;-51
2023/01/08 00:57:53;;;;;;;8.80;7.90;;;2.00;99.90;;;;;;5070747;28;20714;-51
2023/01/08 01:00:22;;;;;;;10.33;8.83;;;2.00;99.90;;;;;;5069905;28;20686;-51
2023/01/08 01:02:49;;;;;;;9.30;7.90;;;2.00;99.90;;;;;;5067879;28;20261;-50
2023/01/08 01:05:16;;;;;;;8.97;8.07;;;2.00;99.90;;;;;;5069553;28;20229;-51
2023/01/08 01:07:44;;;;;;;11.47;8.70;;;1.90;99.90;;;;;;5069078;28;20221;-50
2023/01/08 01:10:12;;;;;;;9.53;8.53;;;2.00;99.90;;;;;;5062712;28;20712;-51
2023/01/08 01:12:40;;;;;;;11.10;8.10;;;2.00;99.90;;;;;;5061523;28;20707;-50
2023/01/08 01:15:10;;;;;;;9.30;8.07;;;2.10;99.90;;;;;;5068531;28;20234;-50
2023/01/08 01:17:58;;;;;;;13.03;8.10;;;2.00;99.90;;;;;;5068807;28;20664;-52
2023/01/08 01:20:25;;;;;;;12.13;8.30;;;2.00;99.90;;;;;;5065047;28;20198;-50
2023/01/08 01:22:52;;;;;;;8.93;8.03;;;1.90;99.90;;;;;;5060543;28;20204;-51
2023/01/08 01:25:19;;;;;;;10.67;8.53;;;1.80;99.90;;;;;;5066555;28;20229;-51
2023/01/08 01:27:46;;;;;;;8.27;7.27;;;1.80;99.90;;;;;;5060598;28;20197;-51
2023/01/08 01:30:13;;;;;;;8.03;7.27;;;1.70;99.90;;;;;;5067977;28;20229;-50
2023/01/08 01:32:40;;;;;;;10.50;8.13;;;1.70;99.90;;;;;;5067887;28;20210;-51
2023/01/08 01:35:09;;;;;;;12.30;9.30;;;1.60;99.90;;;;;;5069127;28;20245;-51
2023/01/08 01:37:36;;;;;;;8.67;7.83;;;1.80;99.90;;;;;;5068388;28;20233;-51
2023/01/08 01:40:04;;;;;;;11.23;7.90;;;1.80;99.90;;;;;;5069380;28;20202;-50
2023/01/08 01:42:39;;;;;;;8.90;7.53;;;1.70;99.90;;;;;;5061677;28;20209;-51
2023/01/08 01:45:16;;;;;;;13.00;8.83;;;1.70;99.90;;;;;;5068602;28;20240;-51
2023/01/08 01:47:45;;;;;;;9.83;8.73;;;1.70;99.90;;;;;;5069869;28;20234;-51
2023/01/08 01:50:19;;;;;;;9.47;8.13;;;1.70;99.90;;;;;;5078981;28;20218;-51
2023/01/08 01:52:49;;;;;;;9.77;8.13;;;1.80;99.90;;;;;;5086078;28;20205;-50
2023/01/08 01:55:17;;;;;;;10.73;8.67;;;1.70;99.90;;;;;;5081595;28;20218;-50
2023/01/08 01:57:50;;;;;;;9.93;8.10;;;1.60;99.90;;;;;;5079488;28;20705;-51
2023/01/08 02:00:18;;;;;;;12.43;9.20;;;1.60;99.90;;;;;;5069442;28;20212;-51
2023/01/08 02:02:45;;;;;;;9.43;8.03;;;1.60;99.90;;;;;;5067476;28;20662;-52
2023/01/08 02:05:12;;;;;;;10.00;7.63;;;1.60;99.90;;;;;;5069125;28;20218;-50
2023/01/08 02:07:48;;;;;;;8.67;7.83;;;1.50;99.90;;;;;;5067622;28;20573;-51
2023/01/08 02:10:20;;;;;;;10.93;9.47;;;1.50;99.90;;;;;;5069383;28;20452;-51
2023/01/08 02:12:53;;;;;;;7.97;7.13;;;1.50;99.90;;;;;;5060471;28;20221;-51
2023/01/08 02:15:26;;;;;;;8.87;7.70;;;1.40;99.90;;;;;;5067952;28;20229;-50
2023/01/08 02:17:58;;;;;;;10.23;8.80;;;1.40;99.90;;;;;;5059662;28;20347;-51
2023/01/08 02:20:30;;;;;;;9.97;8.10;;;1.40;99.90;;;;;;5067542;28;20209;-52
2023/01/08 02:23:14;;;;;;;8.67;7.87;;;1.40;99.90;;;;;;5064974;28;20209;-51
2023/01/08 02:26:05;;;;;;;11.77;8.87;;;1.40;99.90;;;;;;5066121;28;20370;-51
2023/01/08 02:28:37;;;;;;;8.70;7.30;;;1.30;99.90;;;;;;5068265;28;20210;-51
2023/01/08 02:31:06;;;;;;;9.20;7.13;;;1.30;99.90;;;;;;5070106;28;20221;-51
2023/01/08 02:33:33;;;;;;;11.90;8.03;;;1.30;99.90;;;;;;5069053;28;20741;-50
2023/01/08 02:36:30;;;;;;;9.30;8.23;;;1.30;99.90;;;;;;5066518;28;20278;-50
2023/01/08 02:39:26;;;;;;;9.63;7.97;;;1.30;99.90;;;;;;5057630;28;20311;-51
2023/01/08 02:42:12;;;;;;;8.97;7.03;;;1.20;99.90;;;;;;5041661;28;20206;-50
2023/01/08 02:44:54;;;;;;;8.47;6.83;;;1.30;99.90;;;;;;5070330;28;20308;-50
2023/01/08 02:47:27;;;;;;;7.03;6.27;;;1.30;99.90;;;;;;5072202;28;20198;-50
2023/01/08 02:50:01;;;;;;;8.53;6.80;;;1.40;99.90;;;;;;5073535;28;20259;-51
2023/01/08 02:52:31;;;;;;;8.07;7.20;;;1.50;99.90;;;;;;5065052;28;20210;-51
2023/01/08 02:55:02;;;;;;;9.13;7.60;;;1.50;99.90;;;;;;5067289;28;20219;-50
2023/01/08 02:57:33;;;;;;;7.77;6.97;;;1.50;99.90;;;;;;5078750;28;20206;-50
2023/01/08 03:00:00;;;;;;;12.23;8.77;;;1.60;99.90;;;;;;5064200;28;20279;-51
2023/01/08 03:02:32;;;;;;;10.67;8.93;;;1.60;99.90;;;;;;5072813;28;20198;-51
2023/01/08 03:05:05;;;;;;;11.13;8.27;;;1.50;99.90;;;;;;5063164;28;20230;-50
2023/01/08 03:07:32;;;;;;;12.27;8.47;;;1.40;99.90;;;;;;5070113;28;20209;-50
2023/01/08 03:10:00;;;;;;;11.03;8.40;;;1.30;99.90;;;;;;5071979;28;20760;-50
2023/01/08 03:12:41;;;;;;;8.90;8.03;;;1.30;99.90;;;;;;5069942;28;20251;-51
2023/01/08 03:15:12;;;;;;;8.00;7.23;;;1.10;99.90;;;;;;5072139;28;20294;-51
2023/01/08 03:17:44;;;;;;;9.33;7.43;;;1.10;99.90;;;;;;5071110;28;20209;-51
2023/01/08 03:20:15;;;;;;;9.73;7.47;;;1.00;99.90;;;;;;5065772;28;20280;-50
2023/01/08 03:22:45;;;;;;;9.23;7.57;;;1.00;99.90;;;;;;5071550;28;20205;-50
2023/01/08 03:25:14;;;;;;;12.13;8.73;;;1.00;99.90;;;;;;5072223;28;20218;-50
2023/01/08 03:27:47;;;;;;;9.63;8.63;;;1.00;99.90;;;;;;5073491;28;20198;-49
2023/01/08 03:30:17;;;;;;;10.27;8.17;;;1.10;99.90;;;;;;5077803;28;20217;-51
2023/01/08 03:32:45;;;;;;;14.07;9.93;;;1.10;99.90;;;;;;5073825;28;20194;-51
2023/01/08 03:35:17;;;;;;;13.00;10.33;;;1.10;99.90;;;;;;5071753;28;20222;-50
2023/01/08 03:37:49;;;;;;;10.47;9.30;;;1.10;99.90;;;;;;5064503;28;20207;-51
2023/01/08 03:40:20;;;;;;;14.67;9.77;;;1.10;99.90;;;;;;5072664;28;20204;-51
2023/01/08 03:42:49;;;;;;;10.07;8.83;;;1.20;99.90;;;;;;5063722;28;20542;-51
2023/01/08 03:45:16;;;;;;;10.67;8.50;;;1.10;99.90;;;;;;5093295;22;20280;-52
2023/01/08 03:47:44;;;;;;;12.00;8.80;;;1.10;99.90;;;;;;5064547;28;20207;-50
2023/01/08 03:50:16;;;;;;;9.80;8.80;;;1.20;99.90;;;;;;5070507;28;20238;-50
2023/01/08 03:52:43;;;;;;;16.70;9.10;;;1.20;99.90;;;;;;5065095;28;20230;-50
2023/01/08 03:55:10;;;;;;;10.53;7.17;;;1.20;99.90;;;;;;5057507;28;20668;-51
2023/01/08 03:57:37;;;;;;;8.93;7.83;;;1.10;99.90;;;;;;5046601;28;20204;-51
2023/01/08 04:00:07;;;;;;;9.90;8.70;;;1.10;99.90;;;;;;5052820;28;20201;-51
2023/01/08 04:02:34;;;;;;;10.27;9.07;;;1.00;99.90;;;;;;5051766;28;20202;-50
2023/01/08 04:05:01;;;;;;;9.70;8.10;;;1.00;99.90;;;;;;5051582;28;20226;-50
2023/01/08 04:07:28;;;;;;;9.17;8.13;;;1.10;99.90;;;;;;5050820;28;20209;-51
2023/01/08 04:09:55;;;;;;;8.43;7.57;;;1.10;99.90;;;;;;5052590;28;20578;-50
2023/01/08 04:12:23;;;;;;;7.93;7.03;;;1.30;99.90;;;;;;5044008;28;20203;-51
2023/01/08 04:14:50;;;;;;;10.03;7.17;;;1.30;99.90;;;;;;5052222;28;20568;-51
2023/01/08 04:17:18;;;;;;;9.17;7.93;;;1.30;99.90;;;;;;5051287;28;20207;-50
2023/01/08 04:19:45;;;;;;;14.90;8.13;;;1.30;99.90;;;;;;5050067;28;20238;-51
2023/01/08 04:22:12;;;;;;;10.30;7.90;;;1.30;99.90;;;;;;5049784;28;20198;-50
2023/01/08 04:24:39;;;;;;;8.87;6.90;;;1.30;99.90;;;;;;5051326;28;20226;-50
2023/01/08 04:27:07;;;;;;;8.13;7.23;;;1.20;99.90;;;;;;5048776;28;20205;-51
2023/01/08 04:29:34;;;;;;;8.00;7.17;;;1.10;99.90;;;;;;5050084;28;20203;-50
2023/01/08 04:32:04;;;;;;;9.07;8.17;;;1.00;99.90;;;;;;5051517;28;20215;-51
2023/01/08 04:34:33;;;;;;;10.87;8.43;;;1.00;99.90;;;;;;5051173;28;20339;-51
2023/01/08 04:37:00;;;;;;;11.77;8.07;;;1.00;99.90;;;;;;5051069;28;20199;-49
2023/01/08 04:39:27;;;;;;;10.07;9.03;;;0.90;99.90;;;;;;5047428;28;20214;-52
2023/01/08 04:41:55;;;;;;;10.50;8.60;;;0.90;99.90;;;;;;5049147;28;20261;-50
2023/01/08 04:44:22;;;;;;;9.97;8.03;;;0.80;99.90;;;;;;5048286;28;20241;-51
2023/01/08 04:46:49;;;;;;;13.53;9.37;;;0.70;99.90;;;;;;5051858;28;20205;-50
2023/01/08 04:49:16;;;;;;;9.43;8.47;;;0.70;99.90;;;;;;5051335;28;20212;-51
2023/01/08 04:51:44;;;;;;;8.23;7.33;;;0.80;99.90;;;;;;5050808;28;20725;-49
2023/01/08 04:54:11;;;;;;;10.03;7.47;;;0.90;99.90;;;;;;5050690;28;20230;-52
2023/01/08 04:56:38;;;;;;;9.43;8.10;;;0.90;99.90;;;;;;5051840;28;20285;-50
2023/01/08 04:59:05;;;;;;;10.87;8.93;;;0.90;99.90;;;;;;5051113;28;20686;-51
2023/01/08 05:01:32;;;;;;;12.70;9.00;;;0.90;99.90;;;;;;5046435;28;20210;-50
2023/01/08 05:04:01;;;;;;;10.00;8.90;;;0.90;99.90;;;;;;5049077;28;20658;-51
2023/01/08 05:06:29;;;;;;;10.13;9.13;;;1.00;99.90;;;;;;5050862;28;20259;-52
2023/01/08 05:08:58;;;;;;;8.80;7.87;;;1.10;99.90;;;;;;5043477;28;20205;-51
2023/01/08 05:11:25;;;;;;;5.47;5.03;;;1.10;99.90;;;;;;5050956;28;20227;-52
2023/01/08 05:13:53;;;;;;;7.37;5.30;;;1.30;99.90;;;;;;5051261;28;20310;-49
2023/01/08 05:16:20;;;;;;;4.60;4.20;;;1.40;99.90;;;;;;5050422;28;20196;-51
2023/01/08 05:18:47;;;;;;;4.70;4.30;;;1.50;99.90;;;;;;5050864;28;20215;-51
2023/01/08 05:21:15;;;;;;;4.10;3.70;;;1.60;99.90;;;;;;5051889;28;20679;-50
2023/01/08 05:23:45;;;;;;;4.57;3.87;;;1.80;99.90;;;;;;5051945;28;20203;-51
2023/01/08 05:26:14;;;;;;;3.17;2.80;;;1.80;99.90;;;;;;5056712;28;20232;-50
2023/01/08 05:28:41;;;;;;;4.90;2.97;;;1.90;99.90;;;;;;5059972;28;20226;-51
2023/01/08 05:31:10;;;;;;;4.00;3.57;;;2.10;99.90;;;;;;5060850;28;20223;-50
2023/01/08 05:33:37;;;;;;;4.20;3.73;;;2.10;99.90;;;;;;5059007;28;20207;-50
2023/01/08 05:36:06;;;;;;;3.87;3.27;;;2.20;99.90;;;;;;5046962;28;20203;-49
2023/01/08 05:38:33;;;;;;;6.50;3.27;;;2.20;99.90;;;;;;5058784;28;20256;-49
2023/01/08 05:41:00;;;;;;;3.03;2.83;;;2.30;99.90;;;;;;5054594;28;20718;-51
2023/01/08 05:43:28;;;;;;;3.17;2.97;;;2.20;99.90;;;;;;5040606;28;20574;-51
2023/01/08 05:45:58;;;;;;;3.47;3.20;;;2.30;99.90;;;;;;5050928;28;20674;-50
2023/01/08 05:48:25;;;;;;;2.70;2.50;;;2.30;99.90;;;;;;5051267;28;20207;-51
2023/01/08 05:50:52;;;;;;;3.03;2.83;;;2.30;99.90;;;;;;5049156;28;20707;-50
2023/01/08 05:53:19;;;;;;;2.90;2.70;;;2.40;99.90;;;;;;5050940;28;20207;-50
2023/01/08 05:55:48;;;;;;;3.33;3.07;;;2.40;99.90;;;;;;5049205;28;20217;-51
2023/01/08 05:58:17;;;;;;;3.70;3.40;;;2.30;99.90;;;;;;5050845;28;20741;-51
2023/01/08 06:00:46;;;;;;;3.80;3.40;;;2.30;99.90;;;;;;5051128;28;20256;-51
2023/01/08 06:03:13;;;;;;;4.40;4.00;;;2.40;99.90;;;;;;5050602;28;20203;-50
2023/01/08 06:05:40;;;;;;;5.67;4.63;;;2.50;99.90;;;;;;5049220;28;20727;-51
2023/01/08 06:08:07;;;;;;;3.93;3.63;;;2.40;99.90;;;;;;5050848;28;20194;-51
2023/01/08 06:10:34;;;;;;;3.60;3.30;;;2.30;99.90;;;;;;5050728;28;20210;-52
2023/01/08 06:13:01;;;;;;;3.43;3.20;;;2.30;99.90;;;;;;5048999;28;20205;-51
2023/01/08 06:15:31;;;;;;;4.77;3.30;;;2.30;99.90;;;;;;5046454;28;20219;-50
2023/01/08 06:18:02;;;;;;;3.43;3.23;;;2.20;99.90;;;;;;5035109;28;20208;-51
2023/01/08 06:20:30;;;;;;;4.30;3.53;;;2.20;99.90;;;;;;5049599;28;20286;-50
2023/01/08 06:22:57;;;;;;;2.83;2.63;;;2.20;99.90;;;;;;5049992;28;20231;-50
2023/01/08 06:25:24;;;;;;;3.20;2.77;;;2.20;99.90;;;;;;5050082;28;20257;-50
2023/01/08 06:27:52;;;;;;;4.10;3.10;;;2.30;99.90;;;;;;5054683;28;20644;-50
2023/01/08 06:30:19;;;;;;;3.43;3.17;;;2.40;99.90;;;;;;5053810;28;20203;-50
2023/01/08 06:32:46;;;;;;;3.13;2.93;;;2.40;99.90;;;;;;5052776;28;20741;-51
2023/01/08 06:35:15;;;;;;;4.20;3.80;;;2.30;99.90;;;;;;5047223;28;20289;-51
2023/01/08 06:37:42;;;;;;;7.07;3.23;;;2.30;99.90;;;;;;5034578;28;20262;-49
2023/01/08 06:40:10;;;;;;;3.57;2.80;;;2.50;99.90;;;;;;5049602;28;20195;-50
2023/01/08 06:42:37;;;;;;;3.17;2.97;;;2.50;99.90;;;;;;5052798;28;20196;-52
2023/01/08 06:45:04;;;;;;;3.87;3.53;;;2.40;99.90;;;;;;5053753;28;20236;-53
2023/01/08 06:47:33;;;;;;;2.97;2.67;;;2.40;99.90;;;;;;5054736;28;20203;-51
2023/01/08 06:50:00;;;;;;;4.40;4.00;;;2.50;99.90;;;;;;5050223;28;20660;-50
2023/01/08 06:52:28;;;;;;;3.87;3.57;;;2.60;99.90;;;;;;5051530;28;20304;-50
2023/01/08 06:54:55;;;;;;;3.97;3.10;;;2.60;99.90;;;;;;5051417;28;20770;-50
2023/01/08 06:57:22;;;;;;;4.23;3.47;;;2.60;99.90;;;;;;5052405;28;20213;-51
2023/01/08 06:59:49;;;;;;;4.37;3.90;;;2.50;99.90;;;;;;5052647;28;20204;-50
2023/01/08 07:02:18;;;;;;;3.63;3.33;;;2.60;99.90;;;;;;5047698;28;20291;-50
2023/01/08 07:04:45;;;;;;;3.40;3.10;;;2.80;99.90;;;;;;5053850;28;20277;-51
2023/01/08 07:07:13;;;;;;;2.87;2.67;;;2.90;99.90;;;;;;5050962;28;20203;-50
2023/01/08 07:09:42;;;;;;;3.63;2.80;;;2.90;99.90;;;;;;5052318;28;20207;-51
2023/01/08 07:12:12;;;;;;;3.33;3.03;;;2.90;99.90;;;;;;5052857;28;20216;-51
2023/01/08 07:14:39;;;;;;;1.97;1.87;;;2.90;99.90;;;;;;5053606;28;20742;-51
2023/01/08 07:17:09;;;;;;;2.23;2.03;;;3.00;99.90;;;;;;5034360;28;20200;-50
2023/01/08 07:19:36;;;;;;;2.10;2.00;;;3.10;99.90;;;;;;5046078;28;20204;-52
2023/01/08 07:22:03;;;;;;;2.30;2.17;;;3.20;99.90;;;;;;5048064;28;20321;-52
2023/01/08 07:24:30;;;;;;;2.33;1.80;;;3.20;99.90;;;;;;5046727;28;20247;-51
2023/01/08 07:26:59;;;;;;;1.77;1.67;;;3.20;99.90;;;;;;5032888;28;20270;-51
2023/01/08 07:29:26;;;;;;;3.03;2.77;;;3.20;99.90;;;;;;5050328;28;20298;-50
2023/01/08 07:31:53;;;;;;;2.30;1.70;;;3.30;99.90;;;;;;5051728;28;20580;-51
2023/01/08 07:34:20;;;;;;;2.93;2.63;;;3.30;99.90;;;;;;5052049;28;20280;-51
2023/01/08 07:36:47;;;;;;;2.57;2.40;;;3.30;99.90;;;;;;5050600;28;20206;-52
2023/01/08 07:39:14;;;;;;;3.10;2.90;;;3.30;99.90;;;;;;5053397;28;20207;-49
2023/01/08 07:41:41;;;;;;;3.30;3.10;;;3.30;99.90;;;;;;5053751;28;20240;-50
2023/01/08 07:44:09;;;;;;;2.67;2.47;;;3.40;99.90;;;;;;5052527;28;20235;-50
2023/01/08 07:46:36;;;;;;;2.60;2.50;;;3.30;99.90;;;;;;5053162;28;20203;-51
2023/01/08 07:49:04;;;;;;;3.00;2.77;;;3.40;99.90;;;;;;5053386;28;20253;-51
2023/01/08 07:51:31;;;;;;;3.97;3.67;;;3.60;99.90;;;;;;5051343;28;20219;-51
2023/01/08 07:53:58;;;;;;;3.17;2.87;;;3.70;99.90;;;;;;5051823;28;20846;-51
2023/01/08 07:56:25;;;;;;;5.03;4.40;;;3.60;99.90;;;;;;5053004;28;20246;-50
2023/01/08 07:58:52;;;;;;;4.27;3.97;;;3.60;99.90;;;;;;5045020;28;20257;-51
2023/01/08 08:01:21;;;;;;;4.70;4.30;;;3.60;99.90;;;;;;5047660;28;20203;-51
2023/01/08 08:03:48;;;;;;;4.37;4.07;;;3.70;99.90;;;;;;5045156;28;20284;-50
2023/01/08 08:06:15;;;;;;;4.37;3.97;;;3.70;99.90;;;;;;5051558;28;20199;-50
2023/01/08 08:08:42;;;;;;;4.67;4.27;;;3.70;99.90;;;;;;5051343;28;20211;-50
2023/01/08 08:11:09;;;;;;;4.07;3.77;;;3.70;99.90;;;;;;5052190;28;20204;-52
2023/01/08 08:13:36;;;;;;;4.23;3.83;;;3.70;99.90;;;;;;5050443;28;20249;-50
2023/01/08 08:16:04;;;;;;;7.17;5.90;;;3.70;99.90;;;;;;5047845;28;20207;-51
2023/01/08 08:18:32;;;;;;;6.30;5.50;;;3.70;99.90;;;;;;5045463;28;20263;-51
2023/01/08 08:20:59;;;;;;;6.17;5.57;;;3.70;99.90;;;;;;5040633;28;20206;-51
2023/01/08 08:23:26;;;;;;;7.60;5.97;;;3.80;99.90;;;;;;5052021;28;20263;-50
2023/01/08 08:25:53;;;;;;;9.53;6.03;;;3.80;99.90;;;;;;5052617;28;20227;-51
2023/01/08 08:28:20;;;;;;;10.97;6.90;;;3.90;99.90;;;;;;5052761;28;20212;-51
2023/01/08 08:30:47;;;;;;;7.87;6.60;;;3.90;99.90;;;;;;5047942;28;20200;-51
2023/01/08 08:33:14;;;;;;;17.20;15.40;;;3.90;99.90;;;;;;5046353;28;20701;-50
2023/01/08 08:35:49;;;;;;;22.77;20.47;;;4.00;99.90;;;;;;5050041;28;20228;-51
2023/01/08 08:38:16;;;;;;;12.77;10.50;;;4.10;99.90;;;;;;5052069;28;20289;-51
2023/01/08 08:40:43;;;;;;;9.80;8.60;;;4.20;99.90;;;;;;5051520;28;20258;-50
2023/01/08 08:43:10;;;;;;;10.80;8.67;;;4.40;99.90;;;;;;5052286;28;20193;-51
2023/01/08 08:45:37;;;;;;;13.30;10.23;;;4.40;99.90;;;;;;5050547;28;20288;-51
2023/01/08 08:48:06;;;;;;;9.90;8.90;;;4.40;99.90;;;;;;5043046;28;20254;-52
2023/01/08 08:50:33;;;;;;;9.70;8.70;;;4.30;99.90;;;;;;5050999;28;20207;-52
2023/01/08 08:53:02;;;;;;;7.73;6.60;;;4.30;99.90;;;;;;5051747;28;20628;-52
2023/01/08 08:55:29;;;;;;;5.67;5.27;;;4.20;99.90;;;;;;5046611;28;20231;-50
2023/01/08 08:58:03;;;;;;;5.87;5.37;;;4.10;99.90;;;;;;5049555;28;20217;-51
2023/01/08 09:00:30;;;;;;;6.87;6.27;;;4.00;99.90;;;;;;5051468;28;20221;-51
2023/01/08 09:02:57;;;;;;;7.17;6.50;;;3.90;99.90;;;;;;5051262;28;20195;-51
2023/01/08 09:05:24;;;;;;;6.10;5.57;;;3.90;99.90;;;;;;5051463;28;20219;-51
2023/01/08 09:07:53;;;;;;;6.87;6.10;;;4.00;99.90;;;;;;5049313;28;20257;-51
2023/01/08 09:10:21;;;;;;;7.07;6.37;;;4.00;99.90;;;;;;5046635;28;20203;-50
2023/01/08 09:12:48;;;;;;;8.53;5.33;;;4.00;99.90;;;;;;5050314;28;20669;-51
2023/01/08 09:15:15;;;;;;;6.23;5.57;;;4.00;99.90;;;;;;5049998;28;20220;-50
2023/01/08 09:17:42;;;;;;;5.47;4.77;;;4.00;99.90;;;;;;5050735;28;20245;-52
2023/01/08 09:20:10;;;;;;;6.07;5.57;;;4.10;99.90;;;;;;5051618;28;20663;-50
2023/01/08 09:22:37;;;;;;;6.10;5.10;;;4.20;99.90;;;;;;5051608;28;20254;-50
2023/01/08 09:25:05;;;;;;;8.47;6.93;;;4.20;99.90;;;;;;5051384;28;20222;-50
2023/01/08 09:27:33;;;;;;;7.73;6.93;;;4.30;99.90;;;;;;5049128;28;20262;-49
2023/01/08 09:30:00;;;;;;;9.03;6.87;;;4.40;99.90;;;;;;5051315;28;20337;-50
2023/01/08 09:32:27;;;;;;;7.10;6.40;;;4.50;99.90;;;;;;5049215;28;20278;-50
2023/01/08 09:34:54;;;;;;;6.60;5.80;;;4.60;99.90;;;;;;5042779;28;20712;-50
2023/01/08 09:37:22;;;;;;;9.27;8.07;;;4.60;99.90;;;;;;5046689;28;20994;-50
2023/01/08 09:39:50;;;;;;;8.97;6.80;;;4.40;99.90;;;;;;5048570;28;20285;-52
2023/01/08 09:42:21;;;;;;;6.47;5.97;;;4.30;99.90;;;;;;5050401;28;20204;-50
2023/01/08 09:44:53;;;;;;;7.27;6.57;;;4.40;99.90;;;;;;5076783;22;20245;-50
2023/01/08 09:47:25;;;;;;;7.40;6.73;;;4.40;99.90;;;;;;5089603;28;20216;-50
2023/01/08 09:49:55;;;;;;;6.30;5.70;;;4.30;99.90;;;;;;5086952;28;20261;-50
2023/01/08 09:52:22;;;;;;;8.07;5.83;;;4.40;99.90;;;;;;5089508;28;20249;-50
2023/01/08 09:54:49;;;;;;;10.77;5.67;;;4.40;99.90;;;;;;5089349;28;20271;-49
2023/01/08 09:57:19;;;;;;;7.90;7.13;;;4.40;99.90;;;;;;5090632;28;20197;-51
2023/01/08 09:59:47;;;;;;;7.87;7.07;;;4.40;99.90;;;;;;5088889;28;20210;-50
2023/01/08 10:02:17;;;;;;;8.47;7.57;;;4.40;99.90;;;;;;5084482;28;20204;-52
2023/01/08 10:04:44;;;;;;;9.73;7.47;;;4.40;99.90;;;;;;5077555;28;20279;-50
2023/01/08 10:07:20;;;;;;;9.03;7.03;;;4.50;99.90;;;;;;5071217;28;20661;-51
2023/01/08 10:09:49;;;;;;;10.90;8.40;;;4.60;99.90;;;;;;5085887;28;20204;-50
2023/01/08 10:12:20;;;;;;;11.17;8.53;;;4.60;99.90;;;;;;5089527;28;20223;-49
2023/01/08 10:14:48;;;;;;;14.30;10.10;;;4.80;99.90;;;;;;5086377;28;20227;-50
2023/01/08 10:17:27;;;;;;;20.90;13.27;;;4.90;99.90;;;;;;5088303;28;20208;-51
2023/01/08 10:19:54;;;;;;;12.77;9.40;;;4.90;99.90;;;;;;5087433;28;20297;-50
2023/01/08 10:22:23;;;;;;;11.40;8.60;;;5.10;99.90;;;;;;5089360;28;20342;-51
2023/01/08 10:24:51;;;;;;;7.33;6.63;;;5.10;99.90;;;;;;5086050;28;20223;-52
2023/01/08 10:27:20;;;;;;;7.73;6.07;;;5.20;99.90;;;;;;5089733;28;20207;-52
2023/01/08 10:29:47;;;;;;;8.17;6.43;;;5.30;99.90;;;;;;5088564;28;20202;-51
2023/01/08 10:32:16;;;;;;;9.03;5.77;;;5.30;99.90;;;;;;5089403;28;20288;-50
2023/01/08 10:34:47;;;;;;;7.47;6.80;;;5.40;99.90;;;;;;5085823;28;20292;-51
2023/01/08 10:37:16;;;;;;;7.23;6.53;;;5.50;99.90;;;;;;5082881;28;20200;-52
2023/01/08 10:39:46;;;;;;;8.63;7.63;;;5.50;99.90;;;;;;5087035;28;20287;-51
2023/01/08 10:42:15;;;;;;;8.13;6.77;;;5.40;99.90;;;;;;5082910;28;20644;-51
2023/01/08 10:44:52;;;;;;;7.83;6.83;;;5.50;99.90;;;;;;5083862;28;20650;-51
2023/01/08 10:47:19;;;;;;;9.57;7.67;;;5.40;99.90;;;;;;5086872;28;20259;-50
2023/01/08 10:49:48;;;;;;;8.23;6.83;;;5.40;99.90;;;;;;5081108;28;20618;-51
2023/01/08 10:52:27;;;;;;;7.83;7.03;;;5.30;99.90;;;;;;5075778;28;20656;-51
2023/01/08 10:54:55;;;;;;;7.73;6.93;;;5.40;99.90;;;;;;5079657;28;20222;-51
2023/01/08 10:57:24;;;;;;;8.77;7.87;;;5.40;99.90;;;;;;5082811;28;20215;-51
2023/01/08 10:59:52;;;;;;;8.27;7.40;;;5.40;99.90;;;;;;5084790;28;20764;-50
2023/01/08 11:02:30;;;;;;;7.67;7.07;;;5.40;99.90;;;;;;5084350;28;20195;-52
2023/01/08 11:05:00;;;;;;;9.10;7.50;;;5.40;99.90;;;;;;5088256;28;20235;-51
2023/01/08 11:07:28;;;;;;;8.20;7.40;;;5.40;99.90;;;;;;5090086;28;20192;-50
2023/01/08 11:09:55;;;;;;;7.97;6.93;;;5.40;99.90;;;;;;5092278;28;20209;-50
2023/01/08 11:12:34;;;;;;;8.17;6.80;;;5.40;99.90;;;;;;5093075;28;20226;-51
2023/01/08 11:15:03;;;;;;;7.17;6.50;;;5.40;99.90;;;;;;5090688;28;20403;-51
2023/01/08 11:17:30;;;;;;;9.40;7.87;;;5.30;99.90;;;;;;5090367;28;20654;-51
2023/01/08 11:20:18;;;;;;;16.67;13.13;;;5.40;99.90;;;;;;5086190;28;20579;-50
2023/01/08 11:22:46;;;;;;;12.00;10.40;;;5.40;99.90;;;;;;5089768;28;20204;-52
2023/01/08 11:25:18;;;;;;;11.20;9.23;;;5.40;99.90;;;;;;5089460;28;20279;-51
2023/01/08 11:27:46;;;;;;;10.33;9.33;;;5.50;99.90;;;;;;5090407;28;20264;-51
2023/01/08 11:30:17;;;;;;;10.40;9.33;;;5.50;99.90;;;;;;5084603;28;20580;-51
2023/01/08 11:32:49;;;;;;;12.70;10.87;;;5.50;99.90;;;;;;5088084;28;20279;-51
2023/01/08 11:35:20;;;;;;;10.60;9.53;;;5.60;99.90;;;;;;5090729;28;20224;-51
2023/01/08 11:37:52;;;;;;;12.13;10.93;;;5.60;99.90;;;;;;5091725;28;20197;-51
2023/01/08 11:40:28;;;;;;;13.23;11.03;;;5.60;99.90;;;;;;5083955;28;20265;-51
2023/01/08 11:43:11;;;;;;;10.13;9.20;;;5.70;99.90;;;;;;5084108;28;20198;-51
2023/01/08 11:45:53;;;;;;;13.30;9.73;;;5.70;99.90;;;;;;5091943;28;20225;-50
2023/01/08 11:48:39;;;;;;;17.57;13.07;;;5.70;99.90;;;;;;5093791;28;20215;-51
2023/01/08 11:51:27;;;;;;;11.37;9.80;;;5.70;99.90;;;;;;5078659;28;20256;-52
2023/01/08 11:54:02;;;;;;;11.70;9.83;;;5.90;99.90;;;;;;5086338;28;20269;-52
2023/01/08 11:56:42;;;;;;;10.00;8.97;;;5.90;99.90;;;;;;5090383;28;20703;-51
2023/01/08 11:59:18;;;;;;;14.60;11.30;;;5.90;99.90;;;;;;5083136;28;20206;-51
2023/01/08 12:01:57;;;;;;;12.13;9.70;;;5.90;99.90;;;;;;5089837;28;20311;-51
2023/01/08 12:04:49;;;;;;;11.77;9.23;;;5.80;99.90;;;;;;5088156;28;20620;-51
2023/01/08 12:07:24;;;;;;;9.10;8.00;;;5.90;99.90;;;;;;5085773;28;20202;-51
2023/01/08 12:10:01;;;;;;;8.63;7.37;;;5.90;99.90;;;;;;5083219;28;20264;-50
2023/01/08 12:12:41;;;;;;;9.53;8.47;;;5.90;99.90;;;;;;5091444;28;20258;-49
2023/01/08 12:15:16;;;;;;;8.77;7.87;;;6.00;99.90;;;;;;5090300;28;20210;-49
2023/01/08 12:18:06;;;;;;;9.00;8.03;;;6.00;99.90;;;;;;5083183;28;20285;-51
2023/01/08 12:20:37;;;;;;;8.27;7.47;;;5.90;99.90;;;;;;5084291;28;20265;-51
2023/01/08 12:23:31;;;;;;;8.57;7.77;;;5.90;99.90;;;;;;5093807;28;20281;-49
2023/01/08 12:26:11;;;;;;;11.30;8.10;;;5.90;99.90;;;;;;5091270;28;20216;-50
2023/01/08 12:28:59;;;;;;;8.97;8.07;;;5.90;99.90;;;;;;5091947;28;20613;-48
2023/01/08 12:31:49;;;;;;;8.97;8.03;;;5.90;99.90;;;;;;5089059;28;20259;-49
2023/01/08 12:34:20;;;;;;;10.50;8.73;;;6.00;99.90;;;;;;5086312;28;20222;-50
2023/01/08 12:36:52;;;;;;;11.73;9.63;;;6.10;99.90;;;;;;5092002;28;20201;-49
2023/01/08 12:39:26;;;;;;;13.80;8.80;;;6.20;99.90;;;;;;5092269;28;20206;-50
2023/01/08 12:41:59;;;;;;;9.90;8.60;;;6.30;99.90;;;;;;5092374;28;20269;-50
2023/01/08 12:44:28;;;;;;;13.27;10.30;;;6.40;99.90;;;;;;5089710;28;20197;-51
2023/01/08 12:46:58;;;;;;;14.23;9.60;;;6.50;99.90;;;;;;5089692;28;20240;-51
2023/01/08 12:49:33;;;;;;;10.20;9.20;;;6.60;99.90;;;;;;5091906;28;20198;-50
2023/01/08 12:52:09;;;;;;;10.00;8.97;;;6.70;99.90;;;;;;5091813;28;20586;-50
2023/01/08 12:54:48;;;;;;;10.07;9.07;;;6.70;99.90;;;;;;5090791;28;20224;-50
2023/01/08 12:57:23;;;;;;;8.70;7.50;;;6.70;99.90;;;;;;5092204;28;20208;-50
2023/01/08 13:00:00;;;;;;;8.90;8.00;;;6.70;99.90;;;;;;5091801;28;20202;-50
2023/01/08 13:02:35;;;;;;;11.23;8.40;;;6.90;99.90;;;;;;5089962;28;20205;-50
2023/01/08 13:05:13;;;;;;;9.23;8.03;;;7.00;99.90;;;;;;5071165;28;20616;-51
2023/01/08 13:07:45;;;;;;;8.70;7.63;;;7.00;99.90;;;;;;5088229;28;20205;-51